Terminal Aerodrome Forecast
Issued by NWS Austin/San Antonio, TX

Current Version | Previous Version | Text Only | Print | Product List | Glossary Off
Versions: 1 2 3 4 5 6 7 8 9 10 11 12 13 14 15 16 17 18 19 20 21

000
FTUS44 KEWX 191129
TAFAUS
TAF
KAUS 191129Z 1912/2018 19005KT P6SM SCT012
     FM191500 21012KT P6SM FEW040
     FM192100 15010KT P6SM FEW060=

USA.gov is the U.S. government's official web portal to all federal, state and local government web resources and services.